createdAt,value
2022-09-02T00:00:20.079Z,1117.54
2022-09-02T00:01:20.081Z,1117.47
2022-09-02T00:02:20.220Z,1117.44
2022-09-02T00:03:20.334Z,1117.05
2022-09-02T00:04:20.084Z,1116.85
2022-09-02T00:05:20.084Z,1116.56
2022-09-02T00:06:20.094Z,1116.08
2022-09-02T00:07:20.090Z,1115.8
2022-09-02T00:08:20.089Z,1115.6
2022-09-02T00:09:20.093Z,1115.4
2022-09-02T00:10:20.102Z,1114.92
2022-09-02T00:11:20.098Z,1114.84
2022-09-02T00:12:20.101Z,1114.62
2022-09-02T00:13:20.125Z,1114.31
2022-09-02T00:14:20.102Z,1113.77
2022-09-02T00:15:20.102Z,1113.68
2022-09-02T00:16:20.159Z,1113.5
2022-09-02T00:17:20.106Z,1113.19
2022-09-02T00:18:20.108Z,1112.83
2022-09-02T00:19:20.109Z,1112.49
2022-09-02T00:20:20.111Z,1112.02
2022-09-02T00:21:20.114Z,1111.64
2022-09-02T00:22:20.117Z,1111.14
2022-09-02T00:23:20.232Z,1110.71
2022-09-02T00:24:20.117Z,1110.34
2022-09-02T00:25:20.122Z,1109.96
2022-09-02T00:26:20.125Z,1109.63
2022-09-02T00:27:20.129Z,1109.51
2022-09-02T00:28:20.126Z,1109.23
2022-09-02T00:29:20.130Z,1109.11
2022-09-02T00:30:20.132Z,1108.82
2022-09-02T00:31:20.157Z,1108.63
2022-09-02T00:32:20.133Z,1108.63
2022-09-02T00:33:20.140Z,1108.17
2022-09-02T00:34:20.134Z,1108.36
2022-09-02T00:35:20.134Z,1107.95
2022-09-02T00:36:20.140Z,1107.72
2022-09-02T00:37:20.139Z,1107.51
2022-09-02T00:38:20.143Z,1107.34
2022-09-02T00:39:20.157Z,1107.32
2022-09-02T00:40:20.224Z,1107.2
2022-09-02T00:41:20.148Z,1107.1
2022-09-02T00:42:20.147Z,1107.03
2022-09-02T00:43:20.168Z,1106.82
2022-09-02T00:44:20.151Z,1106.49
2022-09-02T00:45:20.152Z,1106.35
2022-09-02T00:46:20.154Z,1106.11
2022-09-02T00:47:20.163Z,1105.92
2022-09-02T00:48:20.160Z,1105.77
2022-09-02T00:49:20.162Z,1105.69
2022-09-02T00:50:20.177Z,1105.4
2022-09-02T00:51:20.165Z,1105.32
2022-09-02T00:52:20.164Z,1104.87
2022-09-02T00:53:20.257Z,1104.94
2022-09-02T00:54:20.167Z,1104.76
2022-09-02T00:55:20.171Z,1104.8
2022-09-02T00:56:20.180Z,1104.48
2022-09-02T00:57:20.173Z,1104.33
2022-09-02T00:58:20.176Z,1104.18
2022-09-02T00:59:20.178Z,1103.84
2022-09-02T01:00:20.179Z,1103.63
2022-09-02T01:01:20.295Z,1103.32
2022-09-02T01:02:20.262Z,1103.19
2022-09-02T01:03:20.250Z,1103.2
2022-09-02T01:04:20.188Z,1102.65
2022-09-02T01:05:20.186Z,1102.66
2022-09-02T01:06:20.195Z,1102.41
2022-09-02T01:07:20.200Z,1102.18
2022-09-02T01:08:20.195Z,1102.14
2022-09-02T01:09:20.203Z,1101.92
2022-09-02T01:10:20.195Z,1101.72
2022-09-02T01:11:20.198Z,1101.41
2022-09-02T01:12:20.200Z,1101.37
2022-09-02T01:13:20.235Z,1101.11
2022-09-02T01:14:20.211Z,1101
2022-09-02T01:15:20.204Z,1100.62
2022-09-02T01:16:20.229Z,1100.09
2022-09-02T01:17:20.213Z,1099.37
2022-09-02T01:18:20.212Z,1099.1
2022-09-02T01:19:20.515Z,1098.7
2022-09-02T01:20:20.216Z,1098.38
2022-09-02T01:21:20.217Z,1098.29
2022-09-02T01:22:20.217Z,1097.94
2022-09-02T01:23:20.266Z,1098.01
2022-09-02T01:24:20.225Z,1097.67
2022-09-02T01:25:20.221Z,1097.18
2022-09-02T01:26:20.223Z,1097
2022-09-02T01:27:20.224Z,1096.72
2022-09-02T01:28:20.228Z,1096.44
2022-09-02T01:29:20.234Z,1096.22
2022-09-02T01:30:20.233Z,1095.41
2022-09-02T01:31:20.293Z,1095.55
2022-09-02T01:32:20.234Z,1095.31
2022-09-02T01:33:20.236Z,1094.66
2022-09-02T01:34:20.239Z,1094.23
2022-09-02T01:35:20.238Z,1093.96
2022-09-02T01:36:20.240Z,1093.6
2022-09-02T01:37:20.243Z,1093.43
2022-09-02T01:38:20.243Z,1093.2
2022-09-02T01:39:20.246Z,1092.97
2022-09-02T01:40:20.299Z,1092.82
2022-09-02T01:41:20.251Z,1092.76
2022-09-02T01:42:20.253Z,1092.43
2022-09-02T01:43:20.254Z,1092.5
2022-09-02T01:44:20.258Z,1092.02
2022-09-02T01:45:20.258Z,1091.44
2022-09-02T01:46:20.301Z,1090.44
2022-09-02T01:47:20.261Z,1089.77
2022-09-02T01:48:21.612Z,1089.32
2022-09-02T01:49:20.264Z,1088.54
2022-09-02T01:50:20.269Z,1088.35
2022-09-02T01:51:23.288Z,1088.05
2022-09-02T01:52:20.271Z,1087.4
2022-09-02T01:53:20.348Z,1087.36
2022-09-02T01:54:20.270Z,1087
2022-09-02T01:55:20.277Z,1086.65
2022-09-02T01:56:20.274Z,1086.54
2022-09-02T01:57:20.280Z,1086.06
2022-09-02T01:58:20.277Z,1085.69
2022-09-02T01:59:20.280Z,1085.47
2022-09-02T02:00:20.287Z,1085.39
2022-09-02T02:01:20.369Z,1085.21
2022-09-02T02:02:23.177Z,1084.99
2022-09-02T02:03:20.301Z,1084.62
2022-09-02T02:04:20.289Z,1084.5
2022-09-02T02:05:20.332Z,1084.21
2022-09-02T02:06:20.290Z,1083.88
2022-09-02T02:07:20.294Z,1083.39
2022-09-02T02:08:20.314Z,1082.73
2022-09-02T02:09:20.299Z,1082.54
2022-09-02T02:10:20.302Z,1081.86
2022-09-02T02:11:20.300Z,1081.02
2022-09-02T02:12:20.301Z,1080.52
2022-09-02T02:13:23.883Z,1080.07
2022-09-02T02:14:20.308Z,1079.6
2022-09-02T02:15:20.308Z,1079.32
2022-09-02T02:16:20.369Z,1078.99
2022-09-02T02:17:20.311Z,1078.96
2022-09-02T02:18:20.312Z,1078.77
2022-09-02T02:19:20.314Z,1078.87
2022-09-02T02:20:20.317Z,1078.64
2022-09-02T02:21:20.320Z,1078.69
2022-09-02T02:22:20.319Z,1078.37
2022-09-02T02:23:20.402Z,1078.22
2022-09-02T02:24:23.104Z,1078.21
2022-09-02T02:25:20.325Z,1077.83
2022-09-02T02:26:20.383Z,1077.68
2022-09-02T02:27:20.328Z,1077.09
2022-09-02T02:28:20.330Z,1077.46
2022-09-02T02:29:20.330Z,1076.99
2022-09-02T02:30:20.335Z,1077.19
2022-09-02T02:31:20.376Z,1076.76
2022-09-02T02:32:20.340Z,1076.59
2022-09-02T02:33:20.409Z,1076.05
2022-09-02T02:34:20.339Z,1075.69
2022-09-02T02:35:20.342Z,1075.55
2022-09-02T02:36:20.342Z,1075.35
2022-09-02T02:37:24.861Z,1075.04
2022-09-02T02:38:20.348Z,1075.07
2022-09-02T02:39:20.346Z,1074.72
2022-09-02T02:40:20.479Z,1074.37
2022-09-02T02:41:20.353Z,1074.03
2022-09-02T02:42:20.353Z,1073.53
2022-09-02T02:43:20.382Z,1072.96
2022-09-02T02:44:20.384Z,1072.67
2022-09-02T02:45:20.356Z,1072.4
2022-09-02T02:46:20.389Z,1071.88
2022-09-02T02:47:20.361Z,1072.2
2022-09-02T02:48:20.362Z,1071.82
2022-09-02T02:49:20.382Z,1071.84
2022-09-02T02:50:20.367Z,1071.53
2022-09-02T02:51:20.369Z,1071.59
2022-09-02T02:52:20.368Z,1071.3
2022-09-02T02:53:20.371Z,1070.86
2022-09-02T02:54:20.393Z,1070.91
2022-09-02T02:55:20.374Z,1070.19
2022-09-02T02:56:20.376Z,1069.62
2022-09-02T02:57:20.380Z,1069.2
2022-09-02T02:58:20.383Z,1068.95
2022-09-02T02:59:20.400Z,1068.27
2022-09-02T03:00:20.384Z,1067.45
2022-09-02T03:01:20.418Z,1066.9
2022-09-02T03:02:20.537Z,1066.71
2022-09-02T03:03:20.406Z,1066.21
2022-09-02T03:04:20.408Z,1065.81
2022-09-02T03:05:20.392Z,1065.33
2022-09-02T03:06:21.849Z,1065.47
2022-09-02T03:07:20.400Z,1065.03
2022-09-02T03:08:20.398Z,1064.41
2022-09-02T03:09:20.457Z,1063.84
2022-09-02T03:10:20.403Z,1063.34
2022-09-02T03:11:20.404Z,1062.96
2022-09-02T03:12:20.407Z,1062.55
2022-09-02T03:13:20.424Z,1062.19
2022-09-02T03:14:20.439Z,1061.87
2022-09-02T03:15:20.431Z,1061.67
2022-09-02T03:16:20.456Z,1061.08
2022-09-02T03:17:20.411Z,1060.99
2022-09-02T03:18:20.413Z,1060.39
2022-09-02T03:19:20.431Z,1059.91
2022-09-02T03:20:20.422Z,1059.65
2022-09-02T03:21:20.420Z,1059.1
2022-09-02T03:22:20.422Z,1058.84
2022-09-02T03:23:20.519Z,1058.12
2022-09-02T03:24:20.442Z,1058.02
2022-09-02T03:25:20.423Z,1057.58
2022-09-02T03:26:20.430Z,1057.68
2022-09-02T03:27:20.428Z,1057.42
2022-09-02T03:28:20.430Z,1057.27
2022-09-02T03:29:20.450Z,1057.06
2022-09-02T03:30:20.432Z,1056.93
2022-09-02T03:31:20.457Z,1056.9
2022-09-02T03:32:20.438Z,1056.51
2022-09-02T03:33:20.438Z,1056.19
2022-09-02T03:34:20.471Z,1055.44
2022-09-02T03:35:20.442Z,1055.11
2022-09-02T03:36:20.443Z,1054.86
2022-09-02T03:37:20.450Z,1054.83
2022-09-02T03:38:20.456Z,1054.35
2022-09-02T03:39:20.464Z,1054
2022-09-02T03:40:20.523Z,1053.69
2022-09-02T03:41:20.455Z,1053.44
2022-09-02T03:42:20.454Z,1052.74
2022-09-02T03:43:20.455Z,1052.37
2022-09-02T03:44:20.474Z,1052.4
2022-09-02T03:45:20.458Z,1051.76
2022-09-02T03:46:20.534Z,1051.2
2022-09-02T03:47:20.682Z,1051.03
2022-09-02T03:48:20.469Z,1050.37
2022-09-02T03:49:20.491Z,1050.01
2022-09-02T03:50:20.464Z,1049.47
2022-09-02T03:51:20.468Z,1049.15
2022-09-02T03:52:20.471Z,1049.08
2022-09-02T03:53:20.631Z,1049.21
2022-09-02T03:54:20.488Z,1049.26
2022-09-02T03:55:20.479Z,1049.26
2022-09-02T03:56:20.478Z,1049.49
2022-09-02T03:57:20.482Z,1049.72
2022-09-02T03:58:21.008Z,1049.8
2022-09-02T03:59:20.514Z,1049.95
2022-09-02T04:00:20.488Z,1050.18
2022-09-02T04:01:20.537Z,1049.96
2022-09-02T04:02:20.691Z,1050.16
2022-09-02T04:03:20.730Z,1050.77
2022-09-02T04:04:22.816Z,1051.2
2022-09-02T04:05:20.495Z,1051.73
2022-09-02T04:06:20.495Z,1051.83
2022-09-02T04:07:20.523Z,1052.29
2022-09-02T04:08:20.517Z,1052.5
2022-09-02T04:09:20.562Z,1052.69
2022-09-02T04:10:20.519Z,1052.39
2022-09-02T04:11:20.516Z,1052.46
2022-09-02T04:12:20.504Z,1051.08
2022-09-02T04:13:20.539Z,1052.33
2022-09-02T04:14:20.529Z,1052.31
2022-09-02T04:15:20.548Z,1052.17
2022-09-02T04:16:20.637Z,1051.82
2022-09-02T04:17:20.514Z,1051.88
2022-09-02T04:18:23.570Z,1051.64
2022-09-02T04:19:20.567Z,1051.45
2022-09-02T04:20:20.555Z,1051.16
2022-09-02T04:21:20.557Z,1050.98
2022-09-02T04:22:20.551Z,1050.96
2022-09-02T04:23:20.532Z,1050.1
2022-09-02T04:24:20.551Z,1049.85
2022-09-02T04:25:20.527Z,1049.62
2022-09-02T04:26:20.528Z,1049.59
2022-09-02T04:27:20.531Z,1049.8
2022-09-02T04:28:20.529Z,1049.72
2022-09-02T04:29:21.827Z,1049.73
2022-09-02T04:30:20.543Z,1049.83
2022-09-02T04:31:20.585Z,1049.76
2022-09-02T04:32:20.538Z,1050.1
2022-09-02T04:33:20.539Z,1049.8
2022-09-02T04:34:20.553Z,1049.62
2022-09-02T04:35:20.543Z,1049.63
2022-09-02T04:36:20.542Z,1049.62
2022-09-02T04:37:20.547Z,1049.67
2022-09-02T04:38:20.548Z,1049.99
2022-09-02T04:39:20.564Z,1049.61
2022-09-02T04:40:23.618Z,1049.84
2022-09-02T04:41:20.554Z,1050.02
2022-09-02T04:42:20.552Z,1050.09
2022-09-02T04:43:20.555Z,1050.04
2022-09-02T04:44:20.556Z,1050.09
2022-09-02T04:45:20.560Z,1050.22
2022-09-02T04:46:20.657Z,1050.16
2022-09-02T04:47:20.563Z,1049.8
2022-09-02T04:48:20.565Z,1050.29
2022-09-02T04:49:20.567Z,1050.15
2022-09-02T04:50:20.568Z,1050.31
2022-09-02T04:51:23.646Z,1050.54
2022-09-02T04:52:20.570Z,1050.79
2022-09-02T04:53:20.578Z,1050.6
2022-09-02T04:54:20.573Z,1050.62
2022-09-02T04:55:20.574Z,1050.65
2022-09-02T04:56:20.579Z,1050.48
2022-09-02T04:57:20.578Z,1050.4
2022-09-02T04:58:20.587Z,1050.81
2022-09-02T04:59:20.581Z,1050.72
2022-09-02T05:00:20.602Z,1050.97
2022-09-02T05:01:20.678Z,1051.26
2022-09-02T05:02:23.715Z,1051.97
2022-09-02T05:03:20.599Z,1052.42
2022-09-02T05:04:20.593Z,1052.99
2022-09-02T05:05:20.593Z,1053.36
2022-09-02T05:06:20.596Z,1053.88
2022-09-02T05:07:20.621Z,1054.46
2022-09-02T05:08:20.600Z,1054.46
2022-09-02T05:09:20.601Z,1055.29
2022-09-02T05:10:20.600Z,1055.7
2022-09-02T05:11:20.605Z,1056.4
2022-09-02T05:12:20.608Z,1056.81
2022-09-02T05:13:20.619Z,1057.44
2022-09-02T05:14:20.607Z,1058.33
2022-09-02T05:15:20.616Z,1058.88
2022-09-02T05:16:20.684Z,1059.65
2022-09-02T05:17:20.612Z,1060.17
2022-09-02T05:18:20.618Z,1061.43
2022-09-02T05:19:20.614Z,1062.16
2022-09-02T05:20:20.617Z,1063.07
2022-09-02T05:21:20.622Z,1063.71
2022-09-02T05:22:20.626Z,1064.56
2022-09-02T05:23:20.621Z,1065.17
2022-09-02T05:24:24.541Z,1066.19
2022-09-02T05:25:20.627Z,1066.51
2022-09-02T05:26:20.628Z,1067.07
2022-09-02T05:27:20.628Z,1067.6
2022-09-02T05:28:20.631Z,1068.34
2022-09-02T05:29:20.631Z,1069.13
2022-09-02T05:30:20.633Z,1069.74
2022-09-02T05:31:20.705Z,1071.06
2022-09-02T05:32:20.639Z,1071.42
2022-09-02T05:33:20.651Z,1072.05
2022-09-02T05:34:20.652Z,1072.74
2022-09-02T05:35:20.643Z,1073.5
2022-09-02T05:36:20.648Z,1074.02
2022-09-02T05:37:20.645Z,1074.95
2022-09-02T05:38:20.650Z,1075.57
2022-09-02T05:39:20.651Z,1076.29
2022-09-02T05:40:22.625Z,1077.15
2022-09-02T05:41:20.653Z,1077.78
2022-09-02T05:42:20.693Z,1078.77
2022-09-02T05:43:20.674Z,1079.41
2022-09-02T05:44:20.656Z,1080.56
2022-09-02T05:45:20.658Z,1081.94
2022-09-02T05:46:20.726Z,1082.91
2022-09-02T05:47:20.713Z,1083.31
2022-09-02T05:48:20.663Z,1083.65
2022-09-02T05:49:20.675Z,1084.45
2022-09-02T05:50:20.676Z,1085.14
2022-09-02T05:51:20.671Z,1085.94
2022-09-02T05:52:20.672Z,1086.69
2022-09-02T05:53:20.684Z,1087.53
2022-09-02T05:54:20.680Z,1088.29
2022-09-02T05:55:20.678Z,1090.33
2022-09-02T05:56:20.682Z,1094.09
2022-09-02T05:57:20.701Z,1096.95
2022-09-02T05:58:20.683Z,1098.43
2022-09-02T05:59:20.681Z,1101.02
2022-09-02T06:00:20.703Z,1103.83
2022-09-02T06:01:20.746Z,1104.33
2022-09-02T06:02:20.736Z,1103.89
2022-09-02T06:03:20.767Z,1103.71
2022-09-02T06:04:20.697Z,1103.64
2022-09-02T06:05:20.714Z,1103.8
2022-09-02T06:06:20.694Z,1103.94
2022-09-02T06:07:20.699Z,1104.23
2022-09-02T06:08:20.702Z,1104.37
2022-09-02T06:09:20.699Z,1104.65
2022-09-02T06:10:20.722Z,1104.93
2022-09-02T06:11:20.708Z,1105.35
2022-09-02T06:12:20.705Z,1105.81
2022-09-02T06:13:20.736Z,1106.68
2022-09-02T06:14:20.715Z,1108.02
2022-09-02T06:15:20.725Z,1109.94
2022-09-02T06:16:20.765Z,1112.41
2022-09-02T06:17:20.724Z,1114.88
2022-09-02T06:18:20.716Z,1117.19
2022-09-02T06:19:20.717Z,1119.31
2022-09-02T06:20:20.736Z,1121.34
2022-09-02T06:21:20.722Z,1122.6
2022-09-02T06:22:20.724Z,1123.35
2022-09-02T06:23:20.806Z,1124.1
2022-09-02T06:24:20.732Z,1125.23
2022-09-02T06:25:20.745Z,1126.7
2022-09-02T06:26:20.730Z,1128.15
2022-09-02T06:27:20.731Z,1129.15
2022-09-02T06:28:20.733Z,1129.87
2022-09-02T06:29:20.737Z,1130.56
2022-09-02T06:30:20.750Z,1131.08
2022-09-02T06:31:20.843Z,1131.64
2022-09-02T06:32:20.741Z,1132.22
2022-09-02T06:33:20.741Z,1132.67
2022-09-02T06:34:20.751Z,1133.09
2022-09-02T06:35:20.775Z,1133.34
2022-09-02T06:36:20.746Z,1133.49
2022-09-02T06:37:20.748Z,1133.65
2022-09-02T06:38:20.752Z,1133.65
2022-09-02T06:39:20.752Z,1133.55
2022-09-02T06:40:20.803Z,1133.35
2022-09-02T06:41:20.759Z,1133.09
2022-09-02T06:42:20.758Z,1132.68
2022-09-02T06:43:20.800Z,1132.3
2022-09-02T06:44:20.765Z,1131.83
2022-09-02T06:45:21.923Z,1131.39
2022-09-02T06:46:20.818Z,1130.83
2022-09-02T06:47:20.771Z,1130
2022-09-02T06:48:20.770Z,1128.95
2022-09-02T06:49:20.775Z,1127.87
2022-09-02T06:50:20.773Z,1126.47
2022-09-02T06:51:20.775Z,1125.16
2022-09-02T06:52:20.776Z,1124.02
2022-09-02T06:53:20.813Z,1122.59
2022-09-02T06:54:20.783Z,1121.5
2022-09-02T06:55:20.779Z,1120.26
2022-09-02T06:56:23.923Z,1119.3
2022-09-02T06:57:20.786Z,1118.53
2022-09-02T06:58:20.786Z,1117.7
2022-09-02T06:59:20.787Z,1117.11
2022-09-02T07:00:20.787Z,1116.76
2022-09-02T07:01:20.909Z,1116.28
2022-09-02T07:02:20.797Z,1115.24
2022-09-02T07:03:20.795Z,1114.46
2022-09-02T07:04:20.798Z,1113.54
2022-09-02T07:05:20.803Z,1112.54
2022-09-02T07:06:20.799Z,1111.53
2022-09-02T07:07:23.889Z,1110.56
2022-09-02T07:08:20.804Z,1108.99
2022-09-02T07:09:20.804Z,1107.85
2022-09-02T07:10:20.812Z,1106.51
2022-09-02T07:11:20.809Z,1105.17
2022-09-02T07:12:20.813Z,1103.94
2022-09-02T07:13:20.812Z,1102.87
2022-09-02T07:14:20.817Z,1101.4
2022-09-02T07:15:20.817Z,1099.59
2022-09-02T07:16:26.798Z,1097.68
2022-09-02T07:17:20.822Z,1095.81
2022-09-02T07:18:23.830Z,1094.24
2022-09-02T07:19:21.011Z,1092.41
2022-09-02T07:20:20.825Z,1090.52
2022-09-02T07:21:20.828Z,1088.58
2022-09-02T07:22:20.832Z,1086.59
2022-09-02T07:23:20.835Z,1083.7
2022-09-02T07:24:20.843Z,1080.6
2022-09-02T07:25:20.834Z,1077.4
2022-09-02T07:26:20.836Z,1074.79
2022-09-02T07:27:20.843Z,1071.47
2022-09-02T07:28:20.844Z,1067.97
2022-09-02T07:29:23.851Z,1065.17
2022-09-02T07:30:20.978Z,1063.46
2022-09-02T07:31:20.905Z,1061.07
2022-09-02T07:32:20.851Z,1058.69
2022-09-02T07:33:20.853Z,1056.34
2022-09-02T07:34:20.852Z,1054.39
2022-09-02T07:35:20.855Z,1052.91
2022-09-02T07:36:20.855Z,1050.95
2022-09-02T07:37:20.858Z,1049.74
2022-09-02T07:38:20.862Z,1049.41
2022-09-02T07:39:20.860Z,1048.56
2022-09-02T07:40:20.933Z,1047.88
2022-09-02T07:41:20.864Z,1047.13
2022-09-02T07:42:20.924Z,1046.63
2022-09-02T07:43:20.872Z,1045.84
2022-09-02T07:44:20.870Z,1044.35
2022-09-02T07:45:20.896Z,1043.17
2022-09-02T07:46:20.889Z,1041.93
2022-09-02T07:47:20.903Z,1040.78
2022-09-02T07:48:20.879Z,1037.96
2022-09-02T07:49:23.901Z,1035.19
2022-09-02T07:50:21.969Z,1032.8
2022-09-02T07:51:21.317Z,1030.27
2022-09-02T07:52:21.357Z,1028.16
2022-09-02T07:53:21.330Z,1026.38
2022-09-02T07:54:21.323Z,1024.18
2022-09-02T07:55:21.323Z,1023.28
2022-09-02T07:56:21.330Z,1021.96
2022-09-02T07:57:21.327Z,1019.67
2022-09-02T07:58:21.332Z,1016.76
2022-09-02T07:59:21.330Z,1014.42
2022-09-02T08:00:21.334Z,1011.84
2022-09-02T08:01:23.596Z,1009.37
2022-09-02T08:02:21.377Z,1007.11
2022-09-02T08:03:21.341Z,1005.98
2022-09-02T08:04:21.341Z,1004.87
2022-09-02T08:05:21.339Z,1003.76
2022-09-02T08:06:27.793Z,1002.15
2022-09-02T08:07:21.344Z,1000.49
2022-09-02T08:08:21.371Z,998.96
2022-09-02T08:09:21.352Z,996.75
2022-09-02T08:10:21.349Z,994.61
2022-09-02T08:11:21.352Z,993.74
2022-09-02T08:12:22.174Z,993.79
2022-09-02T08:13:21.357Z,994.12
2022-09-02T08:14:21.356Z,993.55
2022-09-02T08:15:21.361Z,991.38
2022-09-02T08:16:21.440Z,988.71
2022-09-02T08:17:21.363Z,986
2022-09-02T08:18:22.463Z,983.7
2022-09-02T08:19:21.370Z,982.55
2022-09-02T08:20:21.408Z,981.97
2022-09-02T08:21:21.373Z,981.21
2022-09-02T08:22:21.434Z,978.92
2022-09-02T08:23:35.879Z,975.88
2022-09-02T08:24:21.377Z,973.58
2022-09-02T08:25:21.381Z,970.94
2022-09-02T08:26:21.384Z,968.54
2022-09-02T08:27:21.383Z,965.48
2022-09-02T08:28:21.383Z,962.57
2022-09-02T08:29:21.386Z,959.25
2022-09-02T08:30:21.508Z,956.42
2022-09-02T08:31:21.418Z,953.37
2022-09-02T08:32:21.398Z,950.61
2022-09-02T08:33:21.396Z,949.92
2022-09-02T08:34:21.396Z,949.49
2022-09-02T08:35:21.402Z,948.57
2022-09-02T08:36:21.399Z,946.36
2022-09-02T08:37:21.401Z,944.99
2022-09-02T08:38:21.415Z,943.67
2022-09-02T08:39:21.409Z,943.3
2022-09-02T08:40:21.512Z,942.83
2022-09-02T08:41:21.411Z,942.84
2022-09-02T08:42:21.413Z,942.38
2022-09-02T08:43:21.412Z,942.23
2022-09-02T08:44:21.415Z,941.53
2022-09-02T08:45:21.414Z,941.42
2022-09-02T08:46:21.482Z,940.8
2022-09-02T08:47:21.421Z,940.74
2022-09-02T08:48:21.423Z,941.08
2022-09-02T08:49:21.430Z,942.56
2022-09-02T08:50:21.423Z,943.84
2022-09-02T08:51:21.447Z,943.93
2022-09-02T08:52:21.435Z,942.75
2022-09-02T08:53:21.430Z,940.01
2022-09-02T08:54:21.434Z,936.7
2022-09-02T08:55:21.433Z,933.59
2022-09-02T08:56:21.462Z,930.19
2022-09-02T08:57:21.442Z,925.65
2022-09-02T08:58:21.441Z,921.14
2022-09-02T08:59:21.451Z,916.72
2022-09-02T09:00:21.445Z,911.89
2022-09-02T09:01:21.540Z,908.94
2022-09-02T09:02:21.686Z,906.69
2022-09-02T09:03:21.450Z,906.01
2022-09-02T09:04:21.451Z,906.62
2022-09-02T09:05:21.454Z,907.46
2022-09-02T09:06:21.479Z,906.97
2022-09-02T09:07:21.458Z,905.7
2022-09-02T09:08:21.776Z,906.69
2022-09-02T09:09:21.462Z,906.71
2022-09-02T09:10:21.465Z,904.01
2022-09-02T09:11:21.482Z,901.78
2022-09-02T09:12:21.478Z,899.72
2022-09-02T09:13:21.470Z,895.64
2022-09-02T09:14:21.470Z,892.23
2022-09-02T09:15:21.478Z,888.88
2022-09-02T09:16:21.557Z,885.85
2022-09-02T09:17:21.478Z,883.06
2022-09-02T09:18:21.477Z,880.45
2022-09-02T09:19:21.482Z,878.67
2022-09-02T09:20:21.483Z,878.18
2022-09-02T09:22:21.488Z,878.12
2022-09-02T09:23:24.641Z,875.1
2022-09-02T09:24:21.491Z,871.41
2022-09-02T09:25:21.492Z,868.88
2022-09-02T09:26:21.514Z,866.93
2022-09-02T09:27:21.572Z,865.51
2022-09-02T09:28:21.498Z,865.52
2022-09-02T09:29:21.497Z,866.57
2022-09-02T09:30:21.509Z,867.69
2022-09-02T09:31:21.588Z,868.71
2022-09-02T09:32:21.510Z,870.16
2022-09-02T09:33:21.508Z,873.46
2022-09-02T09:34:24.557Z,879.09
2022-09-02T09:35:21.509Z,883.43
2022-09-02T09:36:21.543Z,886.29
2022-09-02T09:37:21.514Z,887.97
2022-09-02T09:38:21.514Z,889.64
2022-09-02T09:39:21.521Z,890.34
2022-09-02T09:40:21.590Z,890.52
2022-09-02T09:41:21.539Z,890.91
2022-09-02T09:42:21.523Z,890.86
2022-09-02T09:43:21.528Z,890.67
2022-09-02T09:44:21.528Z,892.23
2022-09-02T09:45:24.485Z,894.52
2022-09-02T09:46:21.555Z,895.66
2022-09-02T09:47:21.535Z,896.51
2022-09-02T09:48:21.535Z,896.18
2022-09-02T09:49:21.537Z,895.36
2022-09-02T09:50:21.541Z,895.18
2022-09-02T09:51:21.575Z,896.73
2022-09-02T09:52:21.542Z,898.87
2022-09-02T09:53:21.552Z,900.84
2022-09-02T09:54:21.548Z,900.92
2022-09-02T09:55:25.001Z,900.3
2022-09-02T09:56:25.082Z,898.85
2022-09-02T09:57:21.907Z,896.73
2022-09-02T09:58:21.553Z,895.01
2022-09-02T09:59:21.554Z,891.6
2022-09-02T10:00:21.559Z,890.4
2022-09-02T10:01:21.631Z,899.26
2022-09-02T10:02:21.652Z,897.87
2022-09-02T10:03:21.567Z,896.89
2022-09-02T10:04:39.715Z,903.8
2022-09-02T10:05:21.569Z,903.05
2022-09-02T10:06:21.571Z,910.7
2022-09-02T10:07:24.586Z,908.19
2022-09-02T10:08:21.572Z,906.03
2022-09-02T10:09:21.578Z,904.08
2022-09-02T10:10:21.576Z,900.29
2022-09-02T10:11:21.578Z,896.06
2022-09-02T10:12:21.596Z,891.48
2022-09-02T10:13:21.601Z,887.08
2022-09-02T10:14:21.585Z,883.25
2022-09-02T10:15:21.591Z,880.25
2022-09-02T10:16:24.766Z,889.36
2022-09-02T10:17:21.593Z,898.78
2022-09-02T10:18:21.592Z,906.27
2022-09-02T10:19:21.597Z,903.64
2022-09-02T10:20:21.596Z,899.67
2022-09-02T10:21:21.598Z,897.04
2022-09-02T10:22:21.599Z,894.34
2022-09-02T10:23:21.603Z,890.13
2022-09-02T10:24:21.602Z,886
2022-09-02T10:25:21.607Z,881.08
2022-09-02T10:26:21.625Z,875.62
2022-09-02T10:27:21.607Z,869.03
2022-09-02T10:28:21.609Z,862.97
2022-09-02T10:29:21.613Z,856.41
2022-09-02T10:30:21.618Z,850.18
2022-09-02T10:31:21.638Z,844.41
2022-09-02T10:32:21.619Z,838.57
2022-09-02T10:33:21.622Z,835.39
2022-09-02T10:34:21.624Z,847.46
2022-09-02T10:35:21.627Z,858.22
2022-09-02T10:36:25.223Z,857.11
2022-09-02T10:37:21.633Z,852.29
2022-09-02T10:38:21.632Z,849.4
2022-09-02T10:39:21.637Z,847.32
2022-09-02T10:40:21.669Z,844.85
2022-09-02T10:41:21.646Z,842.22
2022-09-02T10:42:21.643Z,838.96
2022-09-02T10:43:21.639Z,836.77
2022-09-02T10:44:21.640Z,836.37
2022-09-02T10:45:21.648Z,835.93
2022-09-02T10:46:21.685Z,836.01
2022-09-02T10:47:21.654Z,834.1
2022-09-02T10:48:21.696Z,832.02
2022-09-02T10:49:21.650Z,830.24
2022-09-02T10:50:21.661Z,827.87
2022-09-02T10:51:21.658Z,824.59
2022-09-02T10:52:21.661Z,820.74
2022-09-02T10:53:21.702Z,817.98
2022-09-02T10:54:23.491Z,814.93
2022-09-02T10:55:21.662Z,813.77
2022-09-02T10:56:21.663Z,813.09
2022-09-02T10:57:21.680Z,811.74
2022-09-02T10:58:21.670Z,810.1
2022-09-02T10:59:21.671Z,821.83
2022-09-02T11:00:21.684Z,823.83
2022-09-02T11:01:21.730Z,826.67
2022-09-02T11:02:21.697Z,835.25
2022-09-02T11:03:21.778Z,832.7
2022-09-02T11:04:22.681Z,834.39
2022-09-02T11:05:21.680Z,833.82
2022-09-02T11:06:21.683Z,832.78
2022-09-02T11:07:21.700Z,832.17
2022-09-02T11:08:21.721Z,834.99
2022-09-02T11:09:21.723Z,840
2022-09-02T11:10:21.700Z,842.89
2022-09-02T11:11:21.698Z,843.63
2022-09-02T11:12:21.712Z,842.67
2022-09-02T11:13:21.697Z,841.46
2022-09-02T11:14:21.705Z,841.58
2022-09-02T11:15:21.700Z,851.47
2022-09-02T11:16:21.861Z,854.94
2022-09-02T11:17:21.722Z,850.54
2022-09-02T11:18:21.705Z,849.07
2022-09-02T11:19:21.709Z,849
2022-09-02T11:20:21.709Z,849.37
2022-09-02T11:21:21.715Z,851.32
2022-09-02T11:22:24.139Z,851.5
2022-09-02T11:23:21.717Z,852.51
2022-09-02T11:24:21.719Z,850.73
2022-09-02T11:25:21.721Z,855.52
2022-09-02T11:26:21.722Z,855.23
2022-09-02T11:27:32.369Z,855.06
2022-09-02T11:28:21.726Z,848.74
2022-09-02T11:29:21.730Z,844.86
2022-09-02T11:30:21.734Z,851.02
2022-09-02T11:31:21.731Z,857.12
2022-09-02T11:32:21.752Z,865.28
2022-09-02T11:33:21.735Z,865.25
2022-09-02T11:34:21.738Z,873.67
2022-09-02T11:35:21.738Z,880.06
2022-09-02T11:36:21.742Z,876.42
2022-09-02T11:37:21.769Z,880.32
2022-09-02T11:38:21.794Z,876.67
2022-09-02T11:39:30.799Z,870.21
2022-09-02T11:40:39.306Z,862.9
2022-09-02T11:41:39.169Z,857.41
2022-09-02T11:42:39.158Z,853.41
2022-09-02T11:43:39.145Z,850.87
2022-09-02T11:44:39.146Z,848.11
2022-09-02T11:45:39.164Z,844.27
2022-09-02T11:46:39.190Z,848.36
2022-09-02T11:47:40.088Z,854.06
2022-09-02T11:48:39.156Z,861.34
2022-09-02T11:49:39.156Z,863.17
2022-09-02T11:50:39.544Z,863.71
2022-09-02T11:51:39.163Z,867.14
2022-09-02T11:52:39.164Z,868.63
2022-09-02T11:53:39.159Z,861.94
2022-09-02T11:54:39.170Z,857.83
2022-09-02T11:55:39.164Z,852.92
2022-09-02T11:56:39.164Z,852.37
2022-09-02T11:57:39.167Z,857.68
2022-09-02T11:58:39.172Z,858.38
2022-09-02T11:59:39.172Z,862.3
2022-09-02T12:00:39.175Z,870.38
2022-09-02T12:01:43.789Z,869.14
2022-09-02T12:02:39.179Z,871.63
2022-09-02T12:03:58.623Z,867.54
2022-09-02T12:05:09.033Z,862.03
2022-09-02T12:06:08.666Z,858.99
2022-09-02T12:07:10.136Z,856.62
2022-09-02T12:08:08.662Z,855.03
2022-09-02T12:09:08.556Z,862.72
2022-09-02T12:10:08.540Z,860.13
2022-09-02T12:11:08.542Z,861.22
2022-09-02T12:12:08.542Z,866.03
2022-09-02T12:13:09.503Z,858.85
2022-09-02T12:14:08.564Z,853.01
2022-09-02T12:15:08.550Z,848.16
2022-09-02T12:16:08.577Z,846.91
2022-09-02T12:17:08.555Z,851.12
2022-09-02T12:18:08.558Z,853.05